Arklow Mill — EIJD9 — position and weather

sailwx.info

Track history (hours):
 
Tides and Currents Weather Stations Pressure Air Temp Water Temp Dewpoint Dewpoint Depression Visibility Wind Speed Wind Dir Waves Ship Positions

Arklow Mill

Last reported at 2017-May-23 17:00 UTC. Time now 2017-May-23 17:05 UTC.
Position N 56°54' E 011°48'.

Length 137 m; draft 8.4 m.

Type: Ship. MMSI: 250002022.

Date/timePositionNaut miles runAvg speedWind from/ knotsBaromVisibWave heightAir tempDewpointWater temp
2017-May-23 17:00N 56°54' E 011°48'611.6
2017-May-23 16:27N 56°48' E 011°52'1511.7
2017-May-23 15:12N 56°34' E 011°58'1712.1
2017-May-23 13:48N 56°18' E 012°06'412.2
2017-May-23 13:26N 56°15' E 012°12'512.0
2017-May-23 13:00N 56°12' E 012°20'611.7
2017-May-23 12:30N 56°09' E 012°28'611.8
2017-May-23 12:00N 56°05' E 012°36'611.9
2017-May-23 11:30N 55°60' E 012°41'612.8
2017-May-23 11:00N 55°54' E 012°45'611.7
2017-May-23 10:30N 55°48' E 012°44'612.1
2017-May-23 10:00N 55°42' E 012°41'510.5
2017-May-23 09:30N 55°37' E 012°42'4 8.1
2017-May-23 09:00N 55°33' E 012°43'510.6
2017-May-23 08:30N 55°28' E 012°42'612.5
2017-May-23 08:00N 55°21' E 012°41'510.0
2017-May-23 07:30N 55°18' E 012°46'612.1
2017-May-23 07:00N 55°16' E 012°56'612.3
2017-May-23 06:30N 55°15' E 013°07'713.3
2017-May-23 06:00N 55°15' E 013°19'1012.4
2017-May-23 05:12N 55°14' E 013°36'312.2
2017-May-23 04:56N 55°14' E 013°42'612.1
2017-May-23 04:27N 55°14' E 013°52'612.2
2017-May-23 04:00N 55°14' E 014°02'612.4
2017-May-23 03:30N 55°13' E 014°13'611.7
2017-May-23 03:00N 55°17' E 014°20'612.1
2017-May-23 02:30N 55°21' E 014°28'611.9
2017-May-23 02:00N 55°25' E 014°36'611.8
2017-May-23 01:30N 55°25' E 014°46'612.3
2017-May-23 01:00N 55°24' E 014°57'612.2
2017-May-23 00:30N 55°22' E 015°07'612.1
2017-May-23 00:00N 55°21' E 015°18'612.0
2017-May-22 23:30N 55°20' E 015°28'611.8
2017-May-22 23:00N 55°19' E 015°38'611.8
2017-May-22 22:30N 55°18' E 015°48'611.7
2017-May-22 22:00N 55°16' E 015°58'611.8
2017-May-22 21:30N 55°15' E 016°08'611.7
2017-May-22 21:00N 55°14' E 016°18'611.7
2017-May-22 20:30N 55°13' E 016°29'611.6
2017-May-22 20:00N 55°12' E 016°38'611.8
2017-May-22 19:30N 55°10' E 016°49'611.9
2017-May-22 19:00N 55°09' E 016°59'611.8
2017-May-22 18:30N 55°08' E 017°09'611.8
2017-May-22 18:00N 55°07' E 017°19'1511.8
2017-May-22 16:47N 55°04' E 017°44'311.8
2017-May-22 16:29N 55°03' E 017°50'611.7
2017-May-22 15:58N 55°02' E 017°60'511.6
2017-May-22 15:30N 55°01' E 018°09'611.6
2017-May-22 15:00N 54°59' E 018°19'1211.6
2017-May-22 14:00N 54°56' E 018°39'611.8
2017-May-22 13:30N 54°54' E 018°48'611.6
2017-May-22 12:59N 54°52' E 018°58'611.6
2017-May-22 12:30N 54°51' E 019°07'611.7
2017-May-22 12:00N 54°49' E 019°17'611.8
2017-May-22 11:30N 54°47' E 019°26'611.5
2017-May-22 11:00N 54°45' E 019°36'611.6
2017-May-22 10:30N 54°42' E 019°45'611.4
2017-May-22 10:00N 54°39' E 019°53'21 4.8
2017-May-22 05:35N 54°42' E 020°29'0 0.0
2017-May-22 05:26N 54°42' E 020°29'0 0.0
2017-May-22 04:59N 54°42' E 020°29'0 0.0
2017-May-22 04:29N 54°42' E 020°29'0 0.0
2017-May-22 03:56N 54°42' E 020°29'0 0.0
2017-May-22 03:20N 54°42' E 020°29'0 0.0
2017-May-22 02:59N 54°42' E 020°29'0 0.0
2017-May-22 02:23N 54°42' E 020°29'0 0.0
2017-May-22 01:56N 54°42' E 020°29'0 0.0
2017-May-22 01:29N 54°42' E 020°29'0 0.0
2017-May-22 00:59N 54°42' E 020°29'0 0.0
2017-May-22 00:26N 54°42' E 020°29'0 0.0
2017-May-21 23:56N 54°42' E 020°29'0 0.0
2017-May-21 23:26N 54°42' E 020°29'0 0.0
2017-May-21 15:59N 54°42' E 020°29'0 0.0
2017-May-21 15:26N 54°42' E 020°29'0 0.0
2017-May-20 07:09N 54°42' E 020°29'0 0.0
2017-May-20 06:58N 54°42' E 020°29'0 0.0
2017-May-20 06:28N 54°42' E 020°29'0 0.0
2017-May-20 05:58N 54°42' E 020°29'0 0.0
2017-May-20 05:19N 54°42' E 020°29'0 0.0
2017-May-20 04:58N 54°42' E 020°29'0 0.0
2017-May-20 04:28N 54°42' E 020°29'0 0.0
2017-May-20 03:58N 54°42' E 020°29'0 0.0
2017-May-20 03:25N 54°42' E 020°29'0 0.0
2017-May-20 02:58N 54°42' E 020°29'0 0.0
2017-May-20 02:28N 54°42' E 020°29'0 0.0
2017-May-20 01:58N 54°42' E 020°29'0 0.0
2017-May-20 01:28N 54°42' E 020°29'0 0.0
2017-May-20 00:55N 54°42' E 020°29'0 0.0
2017-May-20 00:25N 54°42' E 020°29'0 0.0
2017-May-19 23:43N 54°42' E 020°29'0 0.0
2017-May-19 06:00N 54°42' E 020°29'0 0.0
2017-May-19 05:30N 54°42' E 020°29'0 0.0
2017-May-19 02:42N 54°42' E 020°29'0 0.0
2017-May-19 02:30N 54°42' E 020°29'0 0.0
2017-May-19 02:00N 54°42' E 020°29'0 0.0
2017-May-19 01:29N 54°42' E 020°29'0 0.0
2017-May-19 00:59N 54°42' E 020°29'0 0.0
2017-May-19 00:29N 54°42' E 020°29'0 0.0
2017-May-18 23:59N 54°42' E 020°29'0 0.0
2017-May-18 07:29N 54°42' E 020°29'0 0.0
2017-May-18 04:08N 54°42' E 020°29'0 0.0
2017-May-18 03:56N 54°42' E 020°29'0 0.0
2017-May-18 02:56N 54°42' E 020°29'0 0.0
2017-May-18 02:29N 54°42' E 020°29'0 0.0
2017-May-17 05:59N 54°42' E 020°29'0 0.0
2017-May-17 05:29N 54°42' E 020°29'0 0.0
2017-May-17 04:59N 54°42' E 020°29'0 0.0
2017-May-17 04:27N 54°42' E 020°29'0 0.6
2017-May-17 04:00N 54°42' E 020°28'2 4.8
2017-May-17 03:30N 54°42' E 020°24'4 7.1
2017-May-17 03:00N 54°41' E 020°18'4 7.6
2017-May-17 02:30N 54°41' E 020°12'4 7.9
2017-May-17 02:00N 54°39' E 020°06'4 8.9
2017-May-17 01:30N 54°38' E 019°58'4 8.3
2017-May-17 01:00N 54°39' E 019°51'2 4.5
2017-May-17 00:30N 54°40' E 019°48'1 1.1
2017-May-17 00:00N 54°40' E 019°47'0 0.0
2017-May-16 23:27N 54°40' E 019°47'0 0.0
2017-May-16 23:00N 54°40' E 019°47'0 0.0
2017-May-16 22:30N 54°40' E 019°47'0 0.0
2017-May-16 22:00N 54°40' E 019°47'0 0.0
2017-May-16 21:30N 54°40' E 019°47'0 0.0
2017-May-16 21:00N 54°40' E 019°47'0 0.0
2017-May-16 20:30N 54°40' E 019°47'0 0.0
2017-May-16 20:00N 54°40' E 019°47'0 0.0
2017-May-16 19:30N 54°40' E 019°47'0 0.0
2017-May-16 19:00N 54°40' E 019°47'0 0.0
2017-May-16 18:30N 54°40' E 019°47'0 0.0
2017-May-16 18:00N 54°40' E 019°47'0 0.0
2017-May-16 17:30N 54°40' E 019°47'0 0.0
2017-May-16 17:00N 54°40' E 019°47'0 0.0
2017-May-16 16:30N 54°40' E 019°47'0 0.0
2017-May-16 16:00N 54°40' E 019°47'0 0.0
2017-May-16 15:27N 54°40' E 019°47'0 0.0
2017-May-16 15:00N 54°40' E 019°47'0 0.0
2017-May-16 14:30N 54°40' E 019°47'0 0.0
2017-May-16 13:30N 54°40' E 019°47'0 0.0
2017-May-16 12:57N 54°40' E 019°47'0 0.0
2017-May-16 12:30N 54°40' E 019°47'0 0.0
2017-May-16 12:00N 54°40' E 019°47'0 0.0
2017-May-16 11:30N 54°40' E 019°47'0 0.2
2017-May-16 11:00N 54°40' E 019°47'4 7.9
2017-May-16 10:31N 54°41' E 019°41'713.7
2017-May-16 10:00N 54°41' E 019°29'713.6
2017-May-16 09:30N 54°41' E 019°17'713.4
2017-May-16 09:00N 54°41' E 019°06'612.2
2017-May-16 08:30N 54°38' E 018°56'612.9
2017-May-16 08:00N 54°33' E 018°50'611.8
2017-May-16 07:30N 54°32' E 018°40'2 3.6
2017-May-16 06:59N 54°31' E 018°37'0 0.0
2017-May-16 06:29N 54°31' E 018°37'0 0.0
2017-May-16 05:59N 54°31' E 018°37'0 0.0
2017-May-16 05:29N 54°31' E 018°37'0 0.0
2017-May-16 04:59N 54°31' E 018°37'0 0.0
2017-May-16 04:29N 54°31' E 018°37'0 0.0
2017-May-16 03:59N 54°31' E 018°37'0 0.0
2017-May-16 03:29N 54°31' E 018°37'0 0.0
2017-May-16 02:59N 54°31' E 018°37'0 0.0
2017-May-16 02:29N 54°31' E 018°37'0 0.0
2017-May-16 01:59N 54°31' E 018°37'0 0.1
2017-May-16 01:29N 54°31' E 018°37'0 0.1
2017-May-16 00:59N 54°31' E 018°37'0 0.1
2017-May-16 00:29N 54°31' E 018°37'0 0.1
2017-May-15 23:59N 54°31' E 018°37'0 0.0
2017-May-15 23:29N 54°31' E 018°37'0 0.1
2017-May-15 22:59N 54°31' E 018°37'0 0.0
2017-May-15 22:29N 54°31' E 018°37'0 0.0
2017-May-15 21:59N 54°31' E 018°37'0 0.0
2017-May-15 21:29N 54°31' E 018°37'0 0.0
2017-May-15 20:59N 54°31' E 018°37'0 0.1
2017-May-15 20:29N 54°31' E 018°37'0 0.0
2017-May-15 19:59N 54°31' E 018°37'0 0.0
2017-May-15 19:29N 54°31' E 018°37'0 0.0
2017-May-15 18:59N 54°31' E 018°37'0 0.1
2017-May-15 18:29N 54°31' E 018°37'0 0.0
2017-May-15 17:59N 54°31' E 018°37'0 0.0
2017-May-15 17:29N 54°31' E 018°37'0 0.0
2017-May-15 16:59N 54°31' E 018°37'0 0.8
2017-May-15 16:31N 54°31' E 018°38'510.1
2017-May-15 16:00N 54°32' E 018°46'4 7.4
2017-May-15 15:31N 54°34' E 018°52'4 8.5
2017-May-15 15:01N 54°32' E 018°45'5 4.7
2017-May-15 13:58N 54°31' E 018°37'0 0.1
2017-May-15 13:28N 54°31' E 018°37'0 0.0
2017-May-15 12:58N 54°31' E 018°37'0 0.1
2017-May-15 12:28N 54°31' E 018°37'0 0.1
2017-May-15 11:58N 54°31' E 018°37'0 0.1
2017-May-15 11:28N 54°31' E 018°37'0 0.0
2017-May-15 10:59N 54°31' E 018°37'3 5.4
2017-May-15 10:30N 54°32' E 018°33'1 1.8
2017-May-15 09:59N 54°32' E 018°31'0 0.0
2017-May-15 09:28N 54°32' E 018°31'0 0.0
2017-May-15 08:59N 54°32' E 018°31'0 0.0
2017-May-15 08:28N 54°32' E 018°31'0 0.0
2017-May-15 07:56N 54°32' E 018°31'0 0.0
2017-May-15 07:28N 54°32' E 018°31'0 0.0
2017-May-15 06:59N 54°32' E 018°31'0 0.0
2017-May-15 06:29N 54°32' E 018°31'0 0.0
2017-May-15 05:59N 54°32' E 018°31'0 0.0
2017-May-15 05:29N 54°32' E 018°31'0 0.0
2017-May-15 04:59N 54°32' E 018°31'0 0.0
2017-May-15 04:29N 54°32' E 018°31'0 0.0
2017-May-15 03:59N 54°32' E 018°31'0 0.0
2017-May-15 03:29N 54°32' E 018°31'0 0.0
2017-May-15 02:59N 54°32' E 018°31'0 0.0
2017-May-15 02:29N 54°32' E 018°31'0 0.0
2017-May-15 01:59N 54°32' E 018°31'0 0.0
2017-May-15 01:29N 54°32' E 018°31'0 0.0
2017-May-15 00:59N 54°32' E 018°31'0 0.0
2017-May-15 00:29N 54°32' E 018°31'0 0.0
2017-May-14 23:59N 54°32' E 018°31'0 0.0
2017-May-14 23:29N 54°32' E 018°31'0 0.0
2017-May-14 22:59N 54°32' E 018°31'0 0.0
2017-May-14 22:29N 54°32' E 018°31'0 0.0
2017-May-14 21:59N 54°32' E 018°31'0 0.0
2017-May-14 21:29N 54°32' E 018°31'0 0.0
2017-May-14 20:58N 54°32' E 018°31'0 0.0
2017-May-14 20:29N 54°32' E 018°31'0 0.0
2017-May-14 19:59N 54°32' E 018°31'0 0.0
2017-May-14 19:28N 54°32' E 018°31'0 0.0
2017-May-14 18:59N 54°32' E 018°31'0 0.0
2017-May-14 18:29N 54°32' E 018°31'0 0.0
2017-May-14 17:59N 54°32' E 018°31'0 0.0
2017-May-14 17:29N 54°32' E 018°31'0 0.0
2017-May-14 16:58N 54°32' E 018°31'0 0.0
2017-May-14 16:28N 54°32' E 018°31'0 0.0
2017-May-14 15:59N 54°32' E 018°31'0 0.0
2017-May-14 15:29N 54°32' E 018°31'0 0.0
2017-May-14 14:59N 54°32' E 018°31'0 0.0
2017-May-14 14:29N 54°32' E 018°31'0 0.0
2017-May-14 13:29N 54°32' E 018°31'0 0.0
2017-May-14 12:58N 54°32' E 018°31'0 0.0
2017-May-14 12:29N 54°32' E 018°31'0 0.0
2017-May-14 11:58N 54°32' E 018°31'0 0.0
2017-May-14 11:29N 54°32' E 018°31'0 0.0
2017-May-14 10:59N 54°32' E 018°31'0 0.0
2017-May-14 10:29N 54°32' E 018°31'0 0.0
2017-May-14 09:49N 54°32' E 018°31'0 0.0
2017-May-14 09:29N 54°32' E 018°31'0 0.0
2017-May-14 08:59N 54°32' E 018°31'0 0.0
2017-May-14 08:28N 54°32' E 018°31'0 0.0
2017-May-14 07:59N 54°32' E 018°31'0 0.0
2017-May-14 07:29N 54°32' E 018°31'0 0.0
2017-May-14 06:58N 54°32' E 018°31'0 0.0
2017-May-14 06:28N 54°32' E 018°31'0 0.0
2017-May-14 05:59N 54°32' E 018°31'0 0.0
2017-May-14 05:29N 54°32' E 018°31'0 0.0
2017-May-14 04:59N 54°32' E 018°31'0 0.0
2017-May-14 04:29N 54°32' E 018°31'0 0.0
2017-May-14 03:59N 54°32' E 018°31'0 0.0
2017-May-14 03:29N 54°32' E 018°31'0 0.0
2017-May-14 02:59N 54°32' E 018°31'0 0.0
2017-May-14 02:29N 54°32' E 018°31'0 0.0
2017-May-14 01:59N 54°32' E 018°31'0 0.0
2017-May-14 01:29N 54°32' E 018°31'0 0.0
2017-May-14 00:59N 54°32' E 018°31'0 0.0
2017-May-14 00:28N 54°32' E 018°31'0 0.0
2017-May-13 23:59N 54°32' E 018°31'0 0.0
2017-May-13 23:29N 54°32' E 018°31'0 0.0
2017-May-13 22:58N 54°32' E 018°31'0 0.0
2017-May-13 22:29N 54°32' E 018°31'0 0.0
2017-May-13 21:58N 54°32' E 018°31'0 0.0
2017-May-13 21:29N 54°32' E 018°31'0 0.0
2017-May-13 20:59N 54°32' E 018°31'0 0.0
2017-May-13 20:28N 54°32' E 018°31'0 0.0
2017-May-13 19:59N 54°32' E 018°31'0 0.0
2017-May-13 19:28N 54°32' E 018°31'0 0.0
2017-May-13 18:59N 54°32' E 018°31'0 0.0
2017-May-13 18:29N 54°32' E 018°31'0 0.0
2017-May-13 17:59N 54°32' E 018°31'0 0.0
2017-May-13 17:29N 54°32' E 018°31'  
Track history (hours):
 
Tides and Currents Weather Stations Pressure Air Temp Water Temp Dewpoint Dewpoint Depression Visibility Wind Speed Wind Dir Waves Ship Positions

Arklow Mill

Last reported at 2017-May-23 17:00 UTC. Time now 2017-May-23 17:05 UTC.
Position N 56°54' E 011°48'.

Length 137 m; draft 8.4 m.

Type: Ship. MMSI: 250002022.

Date/timePositionNaut miles runAvg speedWind from/ knotsBaromVisibWave heightAir tempDewpointWater temp
2017-May-23 17:00N 56°54' E 011°48'611.6
2017-May-23 16:27N 56°48' E 011°52'1511.7
2017-May-23 15:12N 56°34' E 011°58'1712.1
2017-May-23 13:48N 56°18' E 012°06'412.2
2017-May-23 13:26N 56°15' E 012°12'512.0
2017-May-23 13:00N 56°12' E 012°20'611.7
2017-May-23 12:30N 56°09' E 012°28'611.8
2017-May-23 12:00N 56°05' E 012°36'611.9
2017-May-23 11:30N 55°60' E 012°41'612.8
2017-May-23 11:00N 55°54' E 012°45'611.7
2017-May-23 10:30N 55°48' E 012°44'612.1
2017-May-23 10:00N 55°42' E 012°41'510.5
2017-May-23 09:30N 55°37' E 012°42'4 8.1
2017-May-23 09:00N 55°33' E 012°43'510.6
2017-May-23 08:30N 55°28' E 012°42'612.5
2017-May-23 08:00N 55°21' E 012°41'510.0
2017-May-23 07:30N 55°18' E 012°46'612.1
2017-May-23 07:00N 55°16' E 012°56'612.3
2017-May-23 06:30N 55°15' E 013°07'713.3
2017-May-23 06:00N 55°15' E 013°19'1012.4
2017-May-23 05:12N 55°14' E 013°36'312.2
2017-May-23 04:56N 55°14' E 013°42'612.1
2017-May-23 04:27N 55°14' E 013°52'612.2
2017-May-23 04:00N 55°14' E 014°02'612.4
2017-May-23 03:30N 55°13' E 014°13'611.7
2017-May-23 03:00N 55°17' E 014°20'612.1
2017-May-23 02:30N 55°21' E 014°28'611.9
2017-May-23 02:00N 55°25' E 014°36'611.8
2017-May-23 01:30N 55°25' E 014°46'612.3
2017-May-23 01:00N 55°24' E 014°57'612.2
2017-May-23 00:30N 55°22' E 015°07'612.1
2017-May-23 00:00N 55°21' E 015°18'612.0
2017-May-22 23:30N 55°20' E 015°28'611.8
2017-May-22 23:00N 55°19' E 015°38'611.8
2017-May-22 22:30N 55°18' E 015°48'611.7
2017-May-22 22:00N 55°16' E 015°58'611.8
2017-May-22 21:30N 55°15' E 016°08'611.7
2017-May-22 21:00N 55°14' E 016°18'611.7
2017-May-22 20:30N 55°13' E 016°29'611.6
2017-May-22 20:00N 55°12' E 016°38'611.8
2017-May-22 19:30N 55°10' E 016°49'611.9
2017-May-22 19:00N 55°09' E 016°59'611.8
2017-May-22 18:30N 55°08' E 017°09'611.8
2017-May-22 18:00N 55°07' E 017°19'1511.8
2017-May-22 16:47N 55°04' E 017°44'311.8
2017-May-22 16:29N 55°03' E 017°50'611.7
2017-May-22 15:58N 55°02' E 017°60'511.6
2017-May-22 15:30N 55°01' E 018°09'611.6
2017-May-22 15:00N 54°59' E 018°19'1211.6
2017-May-22 14:00N 54°56' E 018°39'611.8
2017-May-22 13:30N 54°54' E 018°48'611.6
2017-May-22 12:59N 54°52' E 018°58'611.6
2017-May-22 12:30N 54°51' E 019°07'611.7
2017-May-22 12:00N 54°49' E 019°17'611.8
2017-May-22 11:30N 54°47' E 019°26'611.5
2017-May-22 11:00N 54°45' E 019°36'611.6
2017-May-22 10:30N 54°42' E 019°45'611.4
2017-May-22 10:00N 54°39' E 019°53'21 4.8
2017-May-22 05:35N 54°42' E 020°29'0 0.0
2017-May-22 05:26N 54°42' E 020°29'0 0.0
2017-May-22 04:59N 54°42' E 020°29'0 0.0
2017-May-22 04:29N 54°42' E 020°29'0 0.0
2017-May-22 03:56N 54°42' E 020°29'0 0.0
2017-May-22 03:20N 54°42' E 020°29'0 0.0
2017-May-22 02:59N 54°42' E 020°29'0 0.0
2017-May-22 02:23N 54°42' E 020°29'0 0.0
2017-May-22 01:56N 54°42' E 020°29'0 0.0
2017-May-22 01:29N 54°42' E 020°29'0 0.0
2017-May-22 00:59N 54°42' E 020°29'0 0.0
2017-May-22 00:26N 54°42' E 020°29'0 0.0
2017-May-21 23:56N 54°42' E 020°29'0 0.0
2017-May-21 23:26N 54°42' E 020°29'0 0.0
2017-May-21 15:59N 54°42' E 020°29'0 0.0
2017-May-21 15:26N 54°42' E 020°29'0 0.0
2017-May-20 07:09N 54°42' E 020°29'0 0.0
2017-May-20 06:58N 54°42' E 020°29'0 0.0
2017-May-20 06:28N 54°42' E 020°29'0 0.0
2017-May-20 05:58N 54°42' E 020°29'0 0.0
2017-May-20 05:19N 54°42' E 020°29'0 0.0
2017-May-20 04:58N 54°42' E 020°29'0 0.0
2017-May-20 04:28N 54°42' E 020°29'0 0.0
2017-May-20 03:58N 54°42' E 020°29'0 0.0
2017-May-20 03:25N 54°42' E 020°29'0 0.0
2017-May-20 02:58N 54°42' E 020°29'0 0.0
2017-May-20 02:28N 54°42' E 020°29'0 0.0
2017-May-20 01:58N 54°42' E 020°29'0 0.0
2017-May-20 01:28N 54°42' E 020°29'0 0.0
2017-May-20 00:55N 54°42' E 020°29'0 0.0
2017-May-20 00:25N 54°42' E 020°29'0 0.0
2017-May-19 23:43N 54°42' E 020°29'0 0.0
2017-May-19 06:00N 54°42' E 020°29'0 0.0
2017-May-19 05:30N 54°42' E 020°29'0 0.0
2017-May-19 02:42N 54°42' E 020°29'0 0.0
2017-May-19 02:30N 54°42' E 020°29'0 0.0
2017-May-19 02:00N 54°42' E 020°29'0 0.0
2017-May-19 01:29N 54°42' E 020°29'0 0.0
2017-May-19 00:59N 54°42' E 020°29'0 0.0
2017-May-19 00:29N 54°42' E 020°29'0 0.0
2017-May-18 23:59N 54°42' E 020°29'0 0.0
2017-May-18 07:29N 54°42' E 020°29'0 0.0
2017-May-18 04:08N 54°42' E 020°29'0 0.0
2017-May-18 03:56N 54°42' E 020°29'0 0.0
2017-May-18 02:56N 54°42' E 020°29'0 0.0
2017-May-18 02:29N 54°42' E 020°29'0 0.0
2017-May-17 05:59N 54°42' E 020°29'0 0.0
2017-May-17 05:29N 54°42' E 020°29'0 0.0
2017-May-17 04:59N 54°42' E 020°29'0 0.0
2017-May-17 04:27N 54°42' E 020°29'0 0.6
2017-May-17 04:00N 54°42' E 020°28'2 4.8
2017-May-17 03:30N 54°42' E 020°24'4 7.1
2017-May-17 03:00N 54°41' E 020°18'4 7.6
2017-May-17 02:30N 54°41' E 020°12'4 7.9
2017-May-17 02:00N 54°39' E 020°06'4 8.9
2017-May-17 01:30N 54°38' E 019°58'4 8.3
2017-May-17 01:00N 54°39' E 019°51'2 4.5
2017-May-17 00:30N 54°40' E 019°48'1 1.1
2017-May-17 00:00N 54°40' E 019°47'0 0.0
2017-May-16 23:27N 54°40' E 019°47'0 0.0
2017-May-16 23:00N 54°40' E 019°47'0 0.0
2017-May-16 22:30N 54°40' E 019°47'0 0.0
2017-May-16 22:00N 54°40' E 019°47'0 0.0
2017-May-16 21:30N 54°40' E 019°47'0 0.0
2017-May-16 21:00N 54°40' E 019°47'0 0.0
2017-May-16 20:30N 54°40' E 019°47'0 0.0
2017-May-16 20:00N 54°40' E 019°47'0 0.0
2017-May-16 19:30N 54°40' E 019°47'0 0.0
2017-May-16 19:00N 54°40' E 019°47'0 0.0
2017-May-16 18:30N 54°40' E 019°47'0 0.0
2017-May-16 18:00N 54°40' E 019°47'0 0.0
2017-May-16 17:30N 54°40' E 019°47'0 0.0
2017-May-16 17:00N 54°40' E 019°47'0 0.0
2017-May-16 16:30N 54°40' E 019°47'0 0.0
2017-May-16 16:00N 54°40' E 019°47'0 0.0
2017-May-16 15:27N 54°40' E 019°47'0 0.0
2017-May-16 15:00N 54°40' E 019°47'0 0.0
2017-May-16 14:30N 54°40' E 019°47'0 0.0
2017-May-16 13:30N 54°40' E 019°47'0 0.0
2017-May-16 12:57N 54°40' E 019°47'0 0.0
2017-May-16 12:30N 54°40' E 019°47'0 0.0
2017-May-16 12:00N 54°40' E 019°47'0 0.0
2017-May-16 11:30N 54°40' E 019°47'0 0.2
2017-May-16 11:00N 54°40' E 019°47'4 7.9
2017-May-16 10:31N 54°41' E 019°41'713.7
2017-May-16 10:00N 54°41' E 019°29'713.6
2017-May-16 09:30N 54°41' E 019°17'713.4
2017-May-16 09:00N 54°41' E 019°06'612.2
2017-May-16 08:30N 54°38' E 018°56'612.9
2017-May-16 08:00N 54°33' E 018°50'611.8
2017-May-16 07:30N 54°32' E 018°40'2 3.6
2017-May-16 06:59N 54°31' E 018°37'0 0.0
2017-May-16 06:29N 54°31' E 018°37'0 0.0
2017-May-16 05:59N 54°31' E 018°37'0 0.0
2017-May-16 05:29N 54°31' E 018°37'0 0.0
2017-May-16 04:59N 54°31' E 018°37'0 0.0
2017-May-16 04:29N 54°31' E 018°37'0 0.0
2017-May-16 03:59N 54°31' E 018°37'0 0.0
2017-May-16 03:29N 54°31' E 018°37'0 0.0
2017-May-16 02:59N 54°31' E 018°37'0 0.0
2017-May-16 02:29N 54°31' E 018°37'0 0.0
2017-May-16 01:59N 54°31' E 018°37'0 0.1
2017-May-16 01:29N 54°31' E 018°37'0 0.1
2017-May-16 00:59N 54°31' E 018°37'0 0.1
2017-May-16 00:29N 54°31' E 018°37'0 0.1
2017-May-15 23:59N 54°31' E 018°37'0 0.0
2017-May-15 23:29N 54°31' E 018°37'0 0.1
2017-May-15 22:59N 54°31' E 018°37'0 0.0
2017-May-15 22:29N 54°31' E 018°37'0 0.0
2017-May-15 21:59N 54°31' E 018°37'0 0.0
2017-May-15 21:29N 54°31' E 018°37'0 0.0
2017-May-15 20:59N 54°31' E 018°37'0 0.1
2017-May-15 20:29N 54°31' E 018°37'0 0.0
2017-May-15 19:59N 54°31' E 018°37'0 0.0
2017-May-15 19:29N 54°31' E 018°37'0 0.0
2017-May-15 18:59N 54°31' E 018°37'0 0.1
2017-May-15 18:29N 54°31' E 018°37'0 0.0
2017-May-15 17:59N 54°31' E 018°37'0 0.0
2017-May-15 17:29N 54°31' E 018°37'0 0.0
2017-May-15 16:59N 54°31' E 018°37'0 0.8
2017-May-15 16:31N 54°31' E 018°38'510.1
2017-May-15 16:00N 54°32' E 018°46'4 7.4
2017-May-15 15:31N 54°34' E 018°52'4 8.5
2017-May-15 15:01N 54°32' E 018°45'5 4.7
2017-May-15 13:58N 54°31' E 018°37'0 0.1
2017-May-15 13:28N 54°31' E 018°37'0 0.0
2017-May-15 12:58N 54°31' E 018°37'0 0.1
2017-May-15 12:28N 54°31' E 018°37'0 0.1
2017-May-15 11:58N 54°31' E 018°37'0 0.1
2017-May-15 11:28N 54°31' E 018°37'0 0.0
2017-May-15 10:59N 54°31' E 018°37'3 5.4
2017-May-15 10:30N 54°32' E 018°33'1 1.8
2017-May-15 09:59N 54°32' E 018°31'0 0.0
2017-May-15 09:28N 54°32' E 018°31'0 0.0
2017-May-15 08:59N 54°32' E 018°31'0 0.0
2017-May-15 08:28N 54°32' E 018°31'0 0.0
2017-May-15 07:56N 54°32' E 018°31'0 0.0
2017-May-15 07:28N 54°32' E 018°31'0 0.0
2017-May-15 06:59N 54°32' E 018°31'0 0.0
2017-May-15 06:29N 54°32' E 018°31'0 0.0
2017-May-15 05:59N 54°32' E 018°31'0 0.0
2017-May-15 05:29N 54°32' E 018°31'0 0.0
2017-May-15 04:59N 54°32' E 018°31'0 0.0
2017-May-15 04:29N 54°32' E 018°31'0 0.0
2017-May-15 03:59N 54°32' E 018°31'0 0.0
2017-May-15 03:29N 54°32' E 018°31'0 0.0
2017-May-15 02:59N 54°32' E 018°31'0 0.0
2017-May-15 02:29N 54°32' E 018°31'0 0.0
2017-May-15 01:59N 54°32' E 018°31'0 0.0
2017-May-15 01:29N 54°32' E 018°31'0 0.0
2017-May-15 00:59N 54°32' E 018°31'0 0.0
2017-May-15 00:29N 54°32' E 018°31'0 0.0
2017-May-14 23:59N 54°32' E 018°31'0 0.0
2017-May-14 23:29N 54°32' E 018°31'0 0.0
2017-May-14 22:59N 54°32' E 018°31'0 0.0
2017-May-14 22:29N 54°32' E 018°31'0 0.0
2017-May-14 21:59N 54°32' E 018°31'0 0.0
2017-May-14 21:29N 54°32' E 018°31'0 0.0
2017-May-14 20:58N 54°32' E 018°31'0 0.0
2017-May-14 20:29N 54°32' E 018°31'0 0.0
2017-May-14 19:59N 54°32' E 018°31'0 0.0
2017-May-14 19:28N 54°32' E 018°31'0 0.0
2017-May-14 18:59N 54°32' E 018°31'0 0.0
2017-May-14 18:29N 54°32' E 018°31'0 0.0
2017-May-14 17:59N 54°32' E 018°31'0 0.0
2017-May-14 17:29N 54°32' E 018°31'0 0.0
2017-May-14 16:58N 54°32' E 018°31'0 0.0
2017-May-14 16:28N 54°32' E 018°31'0 0.0
2017-May-14 15:59N 54°32' E 018°31'0 0.0
2017-May-14 15:29N 54°32' E 018°31'0 0.0
2017-May-14 14:59N 54°32' E 018°31'0 0.0
2017-May-14 14:29N 54°32' E 018°31'0 0.0
2017-May-14 13:29N 54°32' E 018°31'0 0.0
2017-May-14 12:58N 54°32' E 018°31'0 0.0
2017-May-14 12:29N 54°32' E 018°31'0 0.0
2017-May-14 11:58N 54°32' E 018°31'0 0.0
2017-May-14 11:29N 54°32' E 018°31'0 0.0
2017-May-14 10:59N 54°32' E 018°31'0 0.0
2017-May-14 10:29N 54°32' E 018°31'0 0.0
2017-May-14 09:49N 54°32' E 018°31'0 0.0
2017-May-14 09:29N 54°32' E 018°31'0 0.0
2017-May-14 08:59N 54°32' E 018°31'0 0.0
2017-May-14 08:28N 54°32' E 018°31'0 0.0
2017-May-14 07:59N 54°32' E 018°31'0 0.0
2017-May-14 07:29N 54°32' E 018°31'0 0.0
2017-May-14 06:58N 54°32' E 018°31'0 0.0
2017-May-14 06:28N 54°32' E 018°31'0 0.0
2017-May-14 05:59N 54°32' E 018°31'0 0.0
2017-May-14 05:29N 54°32' E 018°31'0 0.0
2017-May-14 04:59N 54°32' E 018°31'0 0.0
2017-May-14 04:29N 54°32' E 018°31'0 0.0
2017-May-14 03:59N 54°32' E 018°31'0 0.0
2017-May-14 03:29N 54°32' E 018°31'0 0.0
2017-May-14 02:59N 54°32' E 018°31'0 0.0
2017-May-14 02:29N 54°32' E 018°31'0 0.0
2017-May-14 01:59N 54°32' E 018°31'0 0.0
2017-May-14 01:29N 54°32' E 018°31'0 0.0
2017-May-14 00:59N 54°32' E 018°31'0 0.0
2017-May-14 00:28N 54°32' E 018°31'0 0.0
2017-May-13 23:59N 54°32' E 018°31'0 0.0
2017-May-13 23:29N 54°32' E 018°31'0 0.0
2017-May-13 22:58N 54°32' E 018°31'0 0.0
2017-May-13 22:29N 54°32' E 018°31'0 0.0
2017-May-13 21:58N 54°32' E 018°31'0 0.0
2017-May-13 21:29N 54°32' E 018°31'0 0.0
2017-May-13 20:59N 54°32' E 018°31'0 0.0
2017-May-13 20:28N 54°32' E 018°31'0 0.0
2017-May-13 19:59N 54°32' E 018°31'0 0.0
2017-May-13 19:28N 54°32' E 018°31'0 0.0
2017-May-13 18:59N 54°32' E 018°31'0 0.0
2017-May-13 18:29N 54°32' E 018°31'0 0.0
2017-May-13 17:59N 54°32' E 018°31'0 0.0
2017-May-13 17:29N 54°32' E 018°31'  

Dump ship's entire track history